Flight Track Log - Related Links

Times and Time Zones

All times are in EDT time to prevent confusion due to time zone crossing. See the UPS1125 flight status page for this flight to view local times or setup timezone preferences in your user account.

Time Position Orientation Groundspeed Altitude Reporting Facility
EDT Latitude Longitude Course Direction KTS MPH feet Rate Location/Type
Wed 10:37:33 PM 40.6350 -73.7760 37° Northeast 144 166 100  Level FlightAware ADS-B
Wed 10:37:54 PM 40.6460 -73.7670 32° Northeast 127 146 1,500 3,556 Climbing FlightAware ADS-B
Wed 10:38:00 PM 40.6490 -73.7640 37° Northeast 126 145 1,700 1,200 Climbing FlightAware ADS-B
Wed 10:38:09 PM 40.6520 -73.7580 57° Northeast 136 157 1,800 462 Climbing FlightAware ADS-B
Wed 10:38:13 PM 40.6520 -73.7550 90° East 141 162 1,800 500 Level FlightAware ADS-B
Wed 10:38:21 PM 40.6530 -73.7480 79° East 152 175 1,900 923 Climbing FlightAware ADS-B
Wed 10:38:39 PM 40.6545 -73.7281 84° East 184 212 2,200 2,625 Climbing FlightAware ADS-B
Wed 10:39:25 PM 40.6570 -73.6740 86° East 211 243 4,700 3,265 Climbing FlightAware ADS-B
Wed 10:39:47 PM 40.6600 -73.6440 82° East 220 253 5,900 3,286 Climbing FlightAware ADS-B
Wed 10:40:07 PM 40.6620 -73.6170 84° East 233 268 7,000 3,484 Climbing FlightAware ADS-B
Wed 10:40:18 PM 40.6630 -73.6000 86° East 237 273 7,700 3,600 Climbing FlightAware ADS-B
Wed 10:40:27 PM 40.6660 -73.5890 70° East 239 275 8,200 3,529 Climbing FlightAware ADS-B
Wed 10:40:35 PM 40.6720 -73.5790 52° Northeast 244 281 8,700 3,375 Climbing FlightAware ADS-B
Wed 10:40:43 PM 40.6790 -73.5720 37° Northeast 249 287 9,100 3,500 Climbing FlightAware ADS-B
Wed 10:40:47 PM 40.6840 -73.5680 31° Northeast 251 289 9,400 3,750 Climbing FlightAware ADS-B
Wed 10:41:23 PM 40.7220 -73.5480 22° Northeast 252 290 11,600 3,509 Climbing FlightAware ADS-B
Wed 10:41:40 PM 40.7430 -73.5400 16° North 269 310 12,500 2,341 Climbing FlightAware ADS-B
Wed 10:42:04 PM 40.7720 -73.5480 348° North 306 352 13,200 2,400 Climbing FlightAware ADS-B
Wed 10:42:15 PM 40.7883 -73.5574 336° Northwest 320 368 13,900 2,133 Climbing FlightAware ADS-B (KSNC)
Wed 10:42:49 PM 40.8329 -73.5883 332° Northwest 357 411 14,800 2,137 Climbing FlightAware ADS-B (KSNC)
Wed 10:43:28 PM 40.8960 -73.6310 333° Northwest 380 437 16,500 2,704 Climbing FlightAware ADS-B (KSNC)
Wed 10:44:00 PM 40.9463 -73.6655 333° Northwest 391 450 18,000 2,862 Climbing FlightAware ADS-B (KSNC)
Wed 10:44:33 PM 40.9954 -73.6989 333° Northwest 400 460 19,600 2,647 Climbing FlightAware ADS-B (KSNC)
Wed 10:45:08 PM 41.0590 -73.7420 333° Northwest 408 470 21,000 2,426 Climbing FlightAware ADS-B (KSNC)
Wed 10:45:20 PM 41.0791 -73.7561 332° Northwest 422 486 21,500 1,543 Climbing FlightAware ADS-B (KSNC)
Wed 10:45:43 PM 41.1124 -73.7947 319° Northwest 431 496 21,900 1,000 Climbing FlightAware ADS-B
Wed 10:45:50 PM 41.1198 -73.8098 303° West 434 499 22,000 333 Climbing FlightAware ADS-B
Wed 10:46:01 PM 41.1287 -73.8376 293° West 432 497 22,000  Level FlightAware ADS-B
Wed 10:46:09 PM 41.1326 -73.8558 286° West 430 495 22,000 400 Level FlightAware ADS-B
Wed 10:46:16 PM 41.1352 -73.8723 282° West 427 491 22,100 600 Climbing FlightAware ADS-B (KSNC)
Wed 10:46:19 PM 41.1362 -73.8817 278° West 427 491 22,100 -500 Level FlightAware ADS-B
Wed 10:46:28 PM 41.1371 -73.9071 273° West 424 488 22,000 -400 Descending FlightAware ADS-B
Wed 10:46:34 PM 41.1366 -73.9211 267° West 423 487 22,000  Level FlightAware ADS-B
Wed 10:46:42 PM 41.1339 -73.9430 261° West 421 484 22,000  Level FlightAware ADS-B
Wed 10:47:13 PM 41.1209 -74.0188 257° West 421 484 22,000 1,417 Level FlightAware ADS-B
Wed 10:47:54 PM 41.1049 -74.1213 258° West 417 480 23,700 2,241 Climbing FlightAware ADS-B
Wed 10:48:36 PM 41.0890 -74.2260 259° West 425 489 25,100 2,080 Climbing FlightAware ADS-B
Wed 10:49:09 PM 41.0760 -74.3110 259° West 430 495 26,300 2,233 Climbing FlightAware ADS-B
Wed 10:49:19 PM 41.0711 -74.3392 257° West 426 490 26,700 1,826 Climbing FlightAware ADS-B
Wed 10:50:18 PM 41.0470 -74.4890 258° West 441 507 28,400 1,750 Climbing FlightAware ADS-B
Wed 10:50:55 PM 41.0310 -74.5880 258° West 447 514 29,500 1,739 Climbing FlightAware ADS-B
Wed 10:51:27 PM 41.0170 -74.6750 258° West 452 520 30,400 1,971 Climbing FlightAware ADS-B
Wed 10:52:05 PM 41.0000 -74.7740 257° West 445 512 31,800 2,400 Climbing FlightAware ADS-B
Wed 10:52:37 PM 40.9860 -74.8630 258° West 435 501 33,200 1,913 Climbing FlightAware ADS-B
Wed 10:53:14 PM 40.9700 -74.9500 256° West 428 493 34,000 1,417 Climbing FlightAware ADS-B
Wed 10:53:49 PM 40.9470 -75.0420 252° West 420 483 34,900 909 Climbing FlightAware ADS-B
Wed 10:54:20 PM 40.9270 -75.1150 250° West 416 479 35,000 79 Climbing FlightAware ADS-B
Wed 10:55:05 PM 40.9010 -75.2280 253° West 419 482 35,000  Level FlightAware ADS-B
Wed 10:55:42 PM 40.8830 -75.3200 256° West 422 486 35,000  Level FlightAware ADS-B
Wed 10:56:12 PM 40.8680 -75.3910 254° West 424 488 35,000  Level FlightAware ADS-B
Wed 10:56:51 PM 40.8470 -75.4870 254° West 425 489 35,000  Level FlightAware ADS-B
Wed 10:57:19 PM 40.8360 -75.5590 259° West 434 499 35,000  Level FlightAware ADS-B
Wed 10:57:43 PM 40.8360 -75.6230 270° West 442 509 35,000 556 Level FlightAware ADS-B
Wed 10:58:13 PM 40.8450 -75.7100 278° West 441 507 35,500 870 Climbing FlightAware ADS-B
Wed 10:58:52 PM 40.8570 -75.8140 279° West 440 506 36,000 405 Climbing FlightAware ADS-B
Wed 10:59:27 PM 40.8660 -75.9060 277° West 439 505 36,000  Level FlightAware ADS-B
Wed 11:00:09 PM 40.8780 -76.0140 278° West 442 509 36,000  Level FlightAware ADS-B
Wed 11:00:41 PM 40.8870 -76.0990 278° West 442 509 36,000  Level FlightAware ADS-B
Wed 11:01:15 PM 40.8960 -76.1890 278° West 441 507 36,000  Level FlightAware ADS-B
Wed 11:01:49 PM 40.9050 -76.2790 278° West 442 509 36,000  Level FlightAware ADS-B
Wed 11:02:26 PM 40.9140 -76.3670 278° West 443 510 36,000  Level FlightAware ADS-B
Wed 11:03:07 PM 40.9260 -76.4880 278° West 444 511 36,000  Level FlightAware ADS-B
Wed 11:03:45 PM 40.9370 -76.5900 278° West 445 512 36,000  Level FlightAware ADS-B
Wed 11:04:16 PM 40.9450 -76.6790 277° West 445 512 36,000  Level FlightAware ADS-B
Wed 11:04:54 PM 40.9560 -76.7840 278° West 445 512 36,000  Level FlightAware ADS-B
Wed 11:05:30 PM 40.9650 -76.8820 277° West 446 513 36,000  Level FlightAware ADS-B
Wed 11:06:06 PM 40.9740 -76.9770 277° West 446 513 36,000  Level FlightAware ADS-B
Wed 11:06:38 PM 40.9830 -77.0650 278° West 446 513 36,000  Level FlightAware ADS-B
Wed 11:07:15 PM 40.9920 -77.1670 277° West 445 512 36,000  Level FlightAware ADS-B
Wed 11:07:51 PM 41.0010 -77.2580 277° West 446 513 36,000  Level FlightAware ADS-B
Wed 11:08:26 PM 41.0100 -77.3590 277° West 445 512 36,000  Level FlightAware ADS-B
Wed 11:08:56 PM 41.0170 -77.4340 277° West 445 512 36,000  Level FlightAware ADS-B
Wed 11:09:36 PM 41.0280 -77.5480 277° West 446 513 36,000  Level FlightAware ADS-B
Wed 11:10:06 PM 41.0360 -77.6280 278° West 446 513 36,000  Level FlightAware ADS-B
Wed 11:10:41 PM 41.0440 -77.7210 277° West 445 512 36,000  Level FlightAware ADS-B
Wed 11:11:19 PM 41.0520 -77.8040 277° West 444 511 36,000  Level FlightAware ADS-B
Wed 11:11:53 PM 41.0610 -77.9100 276° West 444 511 36,000  Level FlightAware ADS-B
Wed 11:12:26 PM 41.0690 -78.0010 277° West 443 510 36,000  Level FlightAware ADS-B
Wed 11:13:01 PM 41.0780 -78.0970 277° West 442 509 36,000  Level FlightAware ADS-B
Wed 11:13:36 PM 41.0860 -78.1910 276° West 443 510 36,000  Level FlightAware ADS-B
Wed 11:14:17 PM 41.0950 -78.2980 276° West 443 510 36,000  Level FlightAware ADS-B
Wed 11:14:46 PM 41.1010 -78.3730 276° West 443 510 36,000  Level FlightAware ADS-B
Wed 11:15:21 PM 41.1100 -78.4760 277° West 443 510 36,000  Level FlightAware ADS-B
Wed 11:15:52 PM 41.1170 -78.5520 277° West 443 510 36,000  Level FlightAware ADS-B
Wed 11:16:26 PM 41.1250 -78.6520 276° West 443 510 36,000  Level FlightAware ADS-B
Wed 11:17:06 PM 41.1340 -78.7600 276° West 444 511 36,000  Level FlightAware ADS-B
Wed 11:17:37 PM 41.1400 -78.8370 276° West 444 511 36,000  Level FlightAware ADS-B
Wed 11:18:11 PM 41.1480 -78.9350 276° West 444 511 36,000  Level FlightAware ADS-B
Wed 11:18:46 PM 41.1550 -79.0300 276° West 444 511 36,000  Level FlightAware ADS-B
Wed 11:19:21 PM 41.1620 -79.1240 276° West 445 512 36,000  Level FlightAware ADS-B
Wed 11:19:56 PM 41.1690 -79.2170 276° West 445 512 36,000  Level FlightAware ADS-B
Wed 11:20:31 PM 41.1770 -79.3150 276° West 445 512 36,000  Level FlightAware ADS-B
Wed 11:21:06 PM 41.1840 -79.4110 276° West 444 511 36,000  Level FlightAware ADS-B
Wed 11:21:46 PM 41.1920 -79.5200 276° West 444 511 36,000  Level FlightAware ADS-B
Wed 11:22:16 PM 41.1970 -79.5960 275° West 444 511 36,000  Level FlightAware ADS-B
Wed 11:22:51 PM 41.2040 -79.6970 275° West 444 511 36,000  Level FlightAware ADS-B
Wed 11:23:28 PM 41.2130 -79.8060 276° West 443 510 36,000  Level FlightAware ADS-B
Wed 11:24:02 PM 41.2190 -79.8850 276° West 443 510 36,000  Level FlightAware ADS-B
Wed 11:24:36 PM 41.2260 -79.9790 276° West 444 511 36,000  Level FlightAware ADS-B
Wed 11:25:11 PM 41.2320 -80.0720 275° West 443 510 36,000  Level FlightAware ADS-B
Wed 11:25:46 PM 41.2400 -80.1700 276° West 442 509 36,000  Level FlightAware ADS-B
Wed 11:26:21 PM 41.2460 -80.2590 275° West 440 506 36,000  Level FlightAware ADS-B
Wed 11:26:56 PM 41.2530 -80.3620 275° West 439 505 36,000  Level FlightAware ADS-B
Wed 11:27:34 PM 41.2590 -80.4500 275° West 438 504 36,000  Level FlightAware ADS-B
Wed 11:28:06 PM 41.2660 -80.5500 275° West 437 503 36,000  Level FlightAware ADS-B
Wed 11:28:41 PM 41.2720 -80.6440 275° West 437 503 36,000  Level FlightAware ADS-B
Wed 11:29:16 PM 41.2770 -80.7370 274° West 436 502 36,000  Level FlightAware ADS-B
Wed 11:29:51 PM 41.2840 -80.8260 276° West 435 501 36,000  Level FlightAware ADS-B
Wed 11:30:26 PM 41.2950 -80.9230 279° West 437 503 36,000  Level FlightAware ADS-B
Wed 11:31:05 PM 41.3120 -81.0350 281° West 437 503 36,000  Level FlightAware ADS-B
Wed 11:31:39 PM 41.3250 -81.1230 281° West 437 503 36,000  Level FlightAware ADS-B
Wed 11:32:09 PM 41.3370 -81.2040 281° West 437 503 36,000  Level FlightAware ADS-B
Wed 11:32:51 PM 41.3530 -81.3140 281° West 435 501 36,000  Level FlightAware ADS-B
Wed 11:33:21 PM 41.3650 -81.3940 281° West 434 499 36,000  Level FlightAware ADS-B
Wed 11:33:59 PM 41.3790 -81.4920 281° West 434 499 36,000  Level FlightAware ADS-B
Wed 11:34:33 PM 41.3920 -81.5800 281° West 433 498 36,000  Level FlightAware ADS-B
Wed 11:35:08 PM 41.4060 -81.6730 281° West 433 498 36,000  Level FlightAware ADS-B
Wed 11:35:44 PM 41.4200 -81.7740 281° West 432 497 36,000  Level FlightAware ADS-B
Wed 11:36:20 PM 41.4320 -81.8670 280° West 433 498 36,000  Level FlightAware ADS-B
Wed 11:36:52 PM 41.4440 -81.9500 281° West 433 498 36,000  Level FlightAware ADS-B
Wed 11:37:28 PM 41.4570 -82.0480 280° West 433 498 36,000  Level FlightAware ADS-B
Wed 11:38:04 PM 41.4690 -82.1400 280° West 433 498 36,000  Level FlightAware ADS-B
Wed 11:38:36 PM 41.4810 -82.2250 281° West 433 498 36,000  Level FlightAware ADS-B
Wed 11:39:10 PM 41.4920 -82.3100 280° West 433 498 36,000  Level FlightAware ADS-B
Wed 11:39:49 PM 41.5070 -82.4200 280° West 433 498 36,000  Level FlightAware ADS-B
Wed 11:40:23 PM 41.5190 -82.5090 280° West 433 498 36,000  Level FlightAware ADS-B
Wed 11:41:01 PM 41.5330 -82.6080 281° West 434 499 36,000  Level FlightAware ADS-B
Wed 11:41:33 PM 41.5440 -82.6950 280° West 434 499 36,000  Level FlightAware ADS-B
Wed 11:42:08 PM 41.5560 -82.7790 281° West 434 499 36,000  Level FlightAware ADS-B
Wed 11:42:42 PM 41.5680 -82.8740 280° West 434 499 36,000  Level FlightAware ADS-B
Wed 11:43:16 PM 41.5800 -82.9630 280° West 435 501 36,000  Level FlightAware ADS-B
Wed 11:43:53 PM 41.5930 -83.0640 280° West 435 501 36,000  Level FlightAware ADS-B
Wed 11:44:28 PM 41.6050 -83.1510 280° West 436 502 36,000  Level FlightAware ADS-B
Wed 11:45:03 PM 41.6170 -83.2460 280° West 436 502 36,000  Level FlightAware ADS-B
Wed 11:45:39 PM 41.6300 -83.3450 280° West 435 501 36,000  Level FlightAware ADS-B
Wed 11:46:15 PM 41.6420 -83.4400 280° West 435 501 36,000  Level FlightAware ADS-B
Wed 11:46:47 PM 41.6530 -83.5270 280° West 435 501 36,000  Level FlightAware ADS-B
Wed 11:47:23 PM 41.6650 -83.6240 279° West 434 499 36,000  Level FlightAware ADS-B
Wed 11:47:59 PM 41.6770 -83.7190 280° West 434 499 36,000  Level FlightAware ADS-B
Wed 11:48:35 PM 41.6890 -83.8140 280° West 433 498 36,000  Level FlightAware ADS-B
Wed 11:49:07 PM 41.7000 -83.9020 280° West 433 498 36,000  Level FlightAware ADS-B
Wed 11:49:43 PM 41.7110 -83.9970 279° West 432 497 36,000  Level FlightAware ADS-B
Wed 11:50:19 PM 41.7230 -84.0930 280° West 432 497 36,000  Level FlightAware ADS-B
Wed 11:50:55 PM 41.7340 -84.1880 279° West 432 497 36,000  Level FlightAware ADS-B
Wed 11:51:36 PM 41.7470 -84.2970 279° West 432 497 36,000  Level FlightAware ADS-B
Wed 11:52:08 PM 41.7570 -84.3800 279° West 432 497 36,000  Level FlightAware ADS-B
Wed 11:52:42 PM 41.7680 -84.4700 279° West 432 497 36,000  Level FlightAware ADS-B
Wed 11:53:20 PM 41.7800 -84.5720 279° West 433 498 36,000  Level FlightAware ADS-B
Wed 11:53:56 PM 41.7910 -84.6680 279° West 432 497 36,000  Level FlightAware ADS-B
Wed 11:54:32 PM 41.8020 -84.7630 279° West 431 496 36,000  Level FlightAware ADS-B
Wed 11:55:04 PM 41.8120 -84.8490 279° West 431 496 36,000  Level FlightAware ADS-B
Wed 11:55:42 PM 41.8230 -84.9490 278° West 432 497 36,000  Level FlightAware ADS-B
Wed 11:56:18 PM 41.8330 -85.0410 278° West 432 497 36,000  Level FlightAware ADS-B
Wed 11:56:50 PM 41.8430 -85.1320 278° West 432 497 36,000  Level FlightAware ADS-B
Wed 11:57:25 PM 41.8540 -85.2250 279° West 432 497 36,000  Level FlightAware ADS-B
Wed 11:58:02 PM 41.8640 -85.3220 278° West 432 497 36,000  Level FlightAware ADS-B
Wed 11:58:36 PM 41.8740 -85.4140 278° West 431 496 36,000  Level FlightAware ADS-B
Wed 11:59:09 PM 41.8840 -85.5030 279° West 432 497 36,000  Level FlightAware ADS-B
Wed 11:59:44 PM 41.8940 -85.5950 278° West 432 497 36,000  Level FlightAware ADS-B
Thu 12:00:21 AM 41.9040 -85.6920 278° West 432 497 36,000  Level FlightAware ADS-B
Thu 12:00:58 AM 41.9150 -85.7920 278° West 433 498 36,000  Level FlightAware ADS-B
Thu 12:01:31 AM 41.9240 -85.8780 278° West 432 497 36,000 -522 Level FlightAware ADS-B
Thu 12:02:07 AM 41.9340 -85.9750 278° West 431 496 35,400 -1,217 Descending FlightAware ADS-B
Thu 12:02:40 AM 41.9420 -86.0630 277° West 435 501 34,600 -1,500 Descending FlightAware ADS-B
Thu 12:03:15 AM 41.9520 -86.1570 278° West 438 504 33,700 -1,352 Descending FlightAware ADS-B
Thu 12:03:51 AM 41.9620 -86.2560 278° West 437 503 33,000 -1,068 Descending FlightAware ADS-B
Thu 12:04:28 AM 41.9710 -86.3550 277° West 439 505 32,400 -1,043 Descending FlightAware ADS-B
Thu 12:05:00 AM 41.9800 -86.4440 278° West 444 511 31,800 -1,164 Descending FlightAware ADS-B
Thu 12:05:35 AM 41.9900 -86.5410 278° West 448 516 31,100 -1,250 Descending FlightAware ADS-B
Thu 12:06:12 AM 42.0000 -86.6430 278° West 451 519 30,300 -1,333 Descending FlightAware ADS-B
Thu 12:06:47 AM 42.0090 -86.7400 277° West 454 522 29,500 -1,342 Descending FlightAware ADS-B
Thu 12:07:28 AM 42.0200 -86.8560 277° West 457 526 28,600 -1,421 Descending FlightAware ADS-B
Thu 12:08:03 AM 42.0290 -86.9570 277° West 450 518 27,700 -1,412 Descending FlightAware ADS-B
Thu 12:08:36 AM 42.0380 -87.0450 278° West 447 514 27,000 -1,478 Descending FlightAware ADS-B
Thu 12:09:12 AM 42.0470 -87.1440 277° West 440 506 26,000 -1,652 Descending FlightAware ADS-B
Thu 12:09:45 AM 42.0550 -87.2340 277° West 434 499 25,100 -1,727 Descending FlightAware ADS-B
Thu 12:10:18 AM 42.0630 -87.3190 277° West 426 490 24,100 -1,946 Descending FlightAware ADS-B
Thu 12:10:59 AM 42.0730 -87.4270 277° West 420 483 22,700 -2,055 Descending FlightAware ADS-B
Thu 12:11:31 AM 42.0800 -87.5130 276° West 416 479 21,600 -2,149 Descending FlightAware ADS-B
Thu 12:12:06 AM 42.0880 -87.6020 277° West 411 473 20,300 -2,197 Descending FlightAware ADS-B
Thu 12:12:42 AM 42.0960 -87.6910 277° West 400 460 19,000 -2,250 Descending FlightAware ADS-B
Thu 12:13:18 AM 42.1040 -87.7800 277° West 393 452 17,600 -2,471 Descending FlightAware ADS-B
Thu 12:13:50 AM 42.1110 -87.8590 277° West 389 448 16,200 -1,543 Descending FlightAware ADS-B
Thu 12:14:28 AM 42.1180 -87.9450 276° West 355 409 15,800 -333 Descending FlightAware ADS-B
Thu 12:15:02 AM 42.1250 -88.0210 277° West 347 399 15,800  Level FlightAware ADS-B
Thu 12:15:40 AM 42.1310 -88.0980 276° West 328 377 15,800  Level FlightAware ADS-B
Thu 12:16:12 AM 42.1360 -88.1630 276° West 323 372 15,800  Level FlightAware ADS-B
Thu 12:16:48 AM 42.1420 -88.2370 276° West 323 372 15,800 -1,333 Level FlightAware ADS-B
Thu 12:17:24 AM 42.1480 -88.3070 277° West 329 379 14,200 -3,364 Descending FlightAware ADS-B
Thu 12:17:54 AM 42.1530 -88.3690 276° West 341 392 12,100 -2,824 Descending FlightAware ADS-B
Thu 12:18:32 AM 42.1520 -88.4480 269° West 304 350 11,000 -1,054 Descending FlightAware ADS-B
Thu 12:19:08 AM 42.1480 -88.5120 265° West 281 323 10,800 -167 Descending FlightAware ADS-B
Thu 12:19:44 AM 42.1430 -88.5730 264° West 247 284 10,800  Level FlightAware ADS-B
Thu 12:20:14 AM 42.1410 -88.6180 267° West 246 283 10,800 -91 Level FlightAware ADS-B
Thu 12:20:50 AM 42.1380 -88.6750 266° West 242 278 10,700 -1,200 Descending FlightAware ADS-B
Thu 12:21:14 AM 42.1370 -88.7110 268° West 254 292 9,600 -3,000 Descending FlightAware ADS-B
Thu 12:21:30 AM 42.1350 -88.7370 264° West 268 308 8,700 -2,833 Descending FlightAware ADS-B
Thu 12:21:50 AM 42.1310 -88.7690 260° West 267 307 7,900 -2,200 Descending FlightAware ADS-B
Thu 12:22:00 AM 42.1280 -88.7860 257° West 264 304 7,600 -2,500 Descending FlightAware ADS-B
Thu 12:22:26 AM 42.1230 -88.8290 261° West 266 306 6,400 -2,870 Descending FlightAware ADS-B
Thu 12:22:46 AM 42.1180 -88.8610 258° West 267 307 5,400 -2,850 Descending FlightAware ADS-B
Thu 12:23:06 AM 42.1130 -88.8930 258° West 264 304 4,500 -2,571 Descending FlightAware ADS-B
Thu 12:23:35 AM 42.1050 -88.9370 256° West 259 298 3,300 -2,609 Descending FlightAware ADS-B
Thu 12:23:52 AM 42.1010 -88.9670 260° West 245 282 2,500 -1,953 Descending FlightAware ADS-B
Thu 12:24:18 AM 42.0960 -89.0040 260° West 221 254 1,900 -913 Descending FlightAware ADS-B
Thu 12:24:38 AM 42.0940 -89.0290 264° West 197 227 1,800 -154 Descending FlightAware ADS-B
Thu 12:24:57 AM 42.0940 -89.0520 270° West 172 198 1,800  Level FlightAware ADS-B
Thu 12:25:06 AM 42.0950 -89.0610 279° West 163 188 1,800  Level FlightAware ADS-B
Thu 12:25:13 AM 42.0960 -89.0670 283° West 158 182 1,800  Level FlightAware ADS-B
Thu 12:25:26 AM 42.1000 -89.0780 296° West 143 165 1,800  Level FlightAware ADS-B
Thu 12:25:34 AM 42.1030 -89.0830 309° West 140 161 1,800  Level FlightAware ADS-B
Thu 12:25:38 AM 42.1050 -89.0860 312° West 141 162 1,800 -462 Level FlightAware ADS-B
Thu 12:25:47 AM 42.1100 -89.0900 329° Northwest 140 161 1,700 -353 Descending FlightAware ADS-B
Thu 12:25:55 AM 42.1150 -89.0940 329° Northwest 141 162 1,700 -316 Level FlightAware ADS-B
Thu 12:26:06 AM 42.1220 -89.0970 342° North 141 162 1,600 -600 Descending FlightAware ADS-B
Thu 12:26:15 AM 42.1280 -89.0980 353° North 141 162 1,500 -581 Descending FlightAware ADS-B
Thu 12:26:37 AM 42.1410 -89.0970 North 138 159 1,300 -625 Descending FlightAware ADS-B
Thu 12:27:03 AM 42.1570 -89.0950 North 135 155 1,000 -600 Descending FlightAware ADS-B
Thu 12:27:27 AM 42.1730 -89.0930 North 127 146 800 -514 Descending FlightAware ADS-B
Thu 12:27:38 AM 42.1790 -89.0920 North 123 142 700 -286 Descending FlightAware ADS-B
Thu 12:28:09 AM 42.1940 -89.0900 North 123 142 600 -194 Descending FlightAware ADS-B

Login

Don't have an account? Register now (free) for customized features, flight alerts, and more!